CheckWX is a tool to help pilots better visualize weather data.  It is not intended as a substitute for an official pre-flight weather briefing.

12:20:07 UTC

KPWM METAR
Portland International Jetport Airport
Portland, Maine, USA
Current

29 mins ago

KPWM 221151Z 32007KT 10SM FEW050 FEW250 00/M08 A3020 RMK AO2 SLP228 70001 T00001083 10033 21006 53040
Observed
Feb-22 @ 11:51 UTC
Wind
  • 320° at 7 KTS
Visibility
10 SM
Flight Rules
VFR
Cloud Levels
  • Few at 5,000' AGL
  • Few at 25,000' AGL
Temperature
C / 32°F
Dewpoint
-8°C / 18°F
Humidity
55%
Altimeter
30.2" Hg
Pressure
1022.8 hPa
Previous

1 hour ago

KPWM 221051Z 34006KT 10SM FEW050 FEW060 01/M08 A3016 RMK AO2 SLP215 T00061078
Observed
Feb-22 @ 10:51 UTC
Wind
  • 340° at 6 KTS
Visibility
10 SM
Flight Rules
VFR
Cloud Levels
  • Few at 5,000' AGL
  • Few at 6,000' AGL
Temperature
C / 34°F
Dewpoint
-8°C / 18°F
Humidity
51%
Altimeter
30.16" Hg
Pressure
1021.5 hPa
Previous

2 hours ago

KPWM 220951Z 34005KT 10SM FEW060 00/M07 A3012 RMK AO2 SLP199 T00001067
Observed
Feb-22 @ 09:51 UTC
Wind
  • 340° at 5 KTS
Visibility
10 SM
Flight Rules
VFR
Cloud Levels
  • Few at 6,000' AGL
Temperature
C / 32°F
Dewpoint
-7°C / 19°F
Humidity
60%
Altimeter
30.12" Hg
Pressure
1019.9 hPa